Time;durP1;ratioP1;P1;durP2;ratioP2;P2;SDS_P1;SDS_P2;PMS_P1;PMS_P2;Temp;Humidity;BMP_temperature;BMP_pressure;BME280_temperature;BME280_humidity;BME280_pressure;Samples;Min_cycle;Max_cycle;Signal;HPM_P1;HPM_P2
2022/12/03 00:01:28;;;;;;;27.65;13.10;;;1.90;92.40;;;;;;5026461;28;20478;-74
2022/12/03 00:03:53;;;;;;;23.50;12.52;;;1.80;92.20;;;;;;5017084;28;20167;-74
2022/12/03 00:06:19;;;;;;;28.05;13.73;;;1.90;92.30;;;;;;5022447;28;20423;-74
2022/12/03 00:08:44;;;;;;;26.38;13.63;;;1.80;92.30;;;;;;5022452;28;20034;-74
2022/12/03 00:11:10;;;;;;;28.13;14.32;;;1.80;92.30;;;;;;5018385;28;20403;-74
2022/12/03 00:13:35;;;;;;;28.25;14.10;;;1.80;92.20;;;;;;5025320;28;20041;-74
2022/12/03 00:16:01;;;;;;;27.40;12.95;;;1.80;92.20;;;;;;5035557;28;20048;-73
2022/12/03 00:18:26;;;;;;;25.63;13.10;;;1.80;92.20;;;;;;5023473;28;20765;-73
2022/12/03 00:20:52;;;;;;;29.90;14.07;;;1.80;92.30;;;;;;5025716;28;20025;-74
2022/12/03 00:23:17;;;;;;;27.73;14.15;;;1.70;91.70;;;;;;5019493;28;20060;-73
2022/12/03 00:25:42;;;;;;;26.17;13.65;;;1.80;91.90;;;;;;5025178;28;20060;-74
2022/12/03 00:28:08;;;;;;;30.27;13.52;;;1.70;91.90;;;;;;5022094;28;20138;-74
2022/12/03 00:30:33;;;;;;;27.45;13.75;;;1.70;91.80;;;;;;5025866;28;20265;-74
2022/12/03 00:32:59;;;;;;;27.55;13.15;;;1.70;91.90;;;;;;5020683;28;20060;-74
2022/12/03 00:35:24;;;;;;;29.52;14.27;;;1.70;92.00;;;;;;5020775;28;20113;-74
2022/12/03 00:37:50;;;;;;;29.05;14.35;;;1.70;92.00;;;;;;5027328;28;20094;-74
2022/12/03 00:40:15;;;;;;;28.10;13.57;;;1.70;92.10;;;;;;5030845;28;20549;-74
2022/12/03 00:42:41;;;;;;;27.17;13.82;;;1.70;91.90;;;;;;5017985;28;20111;-74
2022/12/03 00:45:07;;;;;;;27.40;13.63;;;1.70;91.90;;;;;;5024242;28;20436;-74
2022/12/03 00:47:32;;;;;;;30.60;13.27;;;1.60;91.90;;;;;;5013234;28;20041;-74
2022/12/03 00:49:58;;;;;;;28.33;13.48;;;1.60;92.00;;;;;;5012073;28;20097;-74
2022/12/03 00:52:23;;;;;;;29.92;14.27;;;1.60;92.10;;;;;;5015425;28;20114;-74
2022/12/03 00:54:49;;;;;;;29.65;14.40;;;1.60;92.10;;;;;;5019254;28;20422;-74
2022/12/03 00:57:14;;;;;;;25.55;13.10;;;1.60;92.10;;;;;;5024234;28;20021;-74
2022/12/03 00:59:40;;;;;;;31.92;13.93;;;1.60;92.10;;;;;;5021126;28;20018;-74
2022/12/03 01:02:05;;;;;;;32.17;13.88;;;1.60;92.00;;;;;;5025995;28;20029;-74
2022/12/03 01:04:32;;;;;;;33.53;15.55;;;1.60;92.10;;;;;;5021839;28;20070;-73
2022/12/03 01:06:59;;;;;;;32.83;15.00;;;1.50;92.00;;;;;;5026700;28;20437;-74
2022/12/03 01:09:24;;;;;;;34.83;14.63;;;1.50;91.90;;;;;;5029011;28;20018;-75
2022/12/03 01:11:50;;;;;;;31.65;14.60;;;1.50;91.70;;;;;;5021476;28;20081;-74
2022/12/03 01:14:18;;;;;;;34.50;15.38;;;1.40;91.50;;;;;;5026478;28;20034;-74
2022/12/03 01:16:44;;;;;;;28.77;14.68;;;1.40;91.60;;;;;;5025001;28;20064;-73
2022/12/03 01:19:15;;;;;;;28.75;13.63;;;1.40;91.70;;;;;;5027482;28;20083;-73
2022/12/03 01:21:42;;;;;;;37.75;15.10;;;1.40;91.60;;;;;;5024429;28;20033;-74
2022/12/03 01:24:09;;;;;;;30.17;15.30;;;1.40;91.50;;;;;;5016355;28;20515;-74
2022/12/03 01:26:34;;;;;;;31.95;14.20;;;1.40;91.50;;;;;;5023663;28;20056;-74
2022/12/03 01:29:00;;;;;;;31.00;15.05;;;1.40;91.60;;;;;;5034875;28;20061;-74
2022/12/03 01:34:09;;;;;;;38.53;16.42;;;1.30;91.40;;;;;;5026870;28;20092;-74
2022/12/03 01:36:35;;;;;;;31.45;15.48;;;1.30;91.40;;;;;;5025436;28;20041;-74
2022/12/03 01:39:02;;;;;;;32.63;15.95;;;1.30;91.70;;;;;;5025611;28;20017;-74
2022/12/03 01:41:29;;;;;;;35.95;15.40;;;1.30;91.50;;;;;;5019971;28;20022;-74
2022/12/03 01:43:56;;;;;;;31.85;15.75;;;1.20;91.50;;;;;;5025091;28;20017;-74
2022/12/03 01:46:26;;;;;;;34.20;16.55;;;1.20;91.50;;;;;;5015821;28;20033;-74
2022/12/03 01:48:53;;;;;;;30.40;14.88;;;1.30;91.80;;;;;;5020439;28;20029;-74
2022/12/03 01:51:19;;;;;;;34.00;15.43;;;1.20;91.70;;;;;;5023702;28;20127;-74
2022/12/03 01:53:45;;;;;;;34.38;15.68;;;1.20;91.50;;;;;;5026761;28;20490;-74
2022/12/03 01:56:15;;;;;;;31.42;14.95;;;1.30;91.70;;;;;;5020259;28;20079;-74
2022/12/03 01:58:41;;;;;;;34.85;15.85;;;1.20;91.80;;;;;;5018798;28;20022;-74
2022/12/03 02:01:12;;;;;;;37.42;16.05;;;1.20;91.80;;;;;;5022705;28;20391;-74
2022/12/03 02:03:38;;;;;;;35.03;15.00;;;1.20;91.80;;;;;;5027822;28;20026;-74
2022/12/03 02:06:08;;;;;;;29.08;14.32;;;1.20;91.90;;;;;;5024649;28;20296;-74
2022/12/03 02:08:36;;;;;;;28.85;14.32;;;1.20;92.00;;;;;;5020672;28;20091;-74
2022/12/03 02:11:30;;;;;;;32.17;14.00;;;1.20;92.10;;;;;;5026590;28;20380;-74
2022/12/03 02:14:09;;;;;;;35.10;15.38;;;1.20;92.10;;;;;;5023626;28;20069;-74
2022/12/03 02:16:36;;;;;;;34.20;16.73;;;1.10;92.00;;;;;;5026978;28;20065;-74
2022/12/03 02:19:07;;;;;;;36.60;15.57;;;1.10;92.10;;;;;;5026909;28;20021;-74
2022/12/03 02:21:46;;;;;;;31.27;14.82;;;1.10;92.10;;;;;;5026842;28;20022;-74
2022/12/03 02:24:36;;;;;;;30.25;15.05;;;1.10;92.10;;;;;;5023718;28;20025;-74
2022/12/03 02:27:01;;;;;;;31.58;15.38;;;1.10;92.10;;;;;;5024651;28;20314;-74
2022/12/03 02:29:28;;;;;;;30.48;15.60;;;1.00;92.00;;;;;;5018857;28;20025;-74
2022/12/03 02:31:53;;;;;;;36.80;15.27;;;1.00;91.90;;;;;;5023180;28;20029;-74
2022/12/03 02:34:34;;;;;;;32.78;15.93;;;1.00;92.10;;;;;;5029263;28;20097;-73
2022/12/03 02:37:00;;;;;;;35.03;15.45;;;0.90;92.10;;;;;;5023155;28;20022;-74
2022/12/03 02:39:26;;;;;;;32.83;15.48;;;0.90;92.10;;;;;;5021776;28;20431;-74
2022/12/03 02:44:36;;;;;;;36.42;16.63;;;0.90;92.20;;;;;;5018185;28;20032;-74
2022/12/03 02:47:02;;;;;;;33.08;15.00;;;0.90;92.20;;;;;;5025959;28;20101;-74
2022/12/03 02:49:27;;;;;;;35.08;15.88;;;0.90;92.10;;;;;;5023010;28;20041;-74
2022/12/03 02:51:53;;;;;;;36.20;16.58;;;0.90;92.10;;;;;;5020247;28;20485;-74
2022/12/03 02:54:18;;;;;;;33.67;14.85;;;0.90;92.00;;;;;;5018762;28;20034;-74
2022/12/03 02:56:44;;;;;;;35.38;16.40;;;0.90;92.20;;;;;;5026662;28;20025;-74
2022/12/03 02:59:10;;;;;;;31.75;15.32;;;0.80;92.10;;;;;;5028399;28;20042;-74
2022/12/03 03:01:35;;;;;;;34.83;16.08;;;0.80;92.20;;;;;;5012181;28;20121;-74
2022/12/03 03:04:02;;;;;;;30.73;15.05;;;0.80;92.30;;;;;;5028817;28;20382;-74
2022/12/03 03:06:27;;;;;;;36.15;15.85;;;0.80;92.30;;;;;;5018965;28;20104;-74
2022/12/03 03:08:53;;;;;;;36.03;15.35;;;0.80;92.40;;;;;;5025549;28;20117;-74
2022/12/03 03:11:19;;;;;;;38.40;17.35;;;0.70;92.10;;;;;;5018378;28;20452;-74
2022/12/03 03:13:44;;;;;;;33.95;17.17;;;0.70;92.10;;;;;;5027550;28;20450;-73
2022/12/03 03:16:10;;;;;;;36.17;17.90;;;0.60;92.10;;;;;;5026846;28;20025;-74
2022/12/03 03:18:36;;;;;;;33.85;16.90;;;0.60;92.10;;;;;;5028781;28;20021;-74
2022/12/03 03:21:02;;;;;;;38.22;17.92;;;0.60;92.20;;;;;;5028346;28;20124;-74
2022/12/03 03:23:28;;;;;;;33.53;16.08;;;0.60;92.30;;;;;;5027963;28;20061;-74
2022/12/03 03:26:04;;;;;;;36.10;16.60;;;0.60;92.20;;;;;;5017749;28;20377;-75
2022/12/03 03:28:31;;;;;;;34.80;16.95;;;0.60;91.90;;;;;;5033810;28;20021;-73
2022/12/03 03:30:59;;;;;;;42.38;18.00;;;0.50;91.60;;;;;;5021658;28;20024;-74
2022/12/03 03:33:25;;;;;;;36.55;17.52;;;0.50;91.20;;;;;;5015606;28;20569;-74
2022/12/03 03:35:51;;;;;;;33.80;16.20;;;0.50;91.40;;;;;;5021258;28;20676;-74
2022/12/03 03:38:32;;;;;;;37.53;16.50;;;0.40;91.20;;;;;;5008560;28;20093;-74
2022/12/03 03:40:59;;;;;;;37.75;17.13;;;0.40;91.10;;;;;;5028282;28;20263;-74
2022/12/03 03:43:24;;;;;;;35.75;16.15;;;0.40;91.20;;;;;;5027302;28;20438;-74
2022/12/03 03:45:52;;;;;;;34.75;16.85;;;0.40;91.10;;;;;;5032546;28;20044;-74
2022/12/03 03:48:18;;;;;;;33.65;16.73;;;0.40;91.30;;;;;;5030168;28;20377;-74
2022/12/03 03:50:44;;;;;;;35.65;16.17;;;0.30;91.10;;;;;;5024017;28;20568;-74
2022/12/03 03:53:10;;;;;;;34.38;16.15;;;0.20;91.00;;;;;;5033757;28;20025;-74
2022/12/03 03:55:37;;;;;;;35.10;17.63;;;0.20;91.10;;;;;;5033769;28;20052;-74
2022/12/03 03:58:02;;;;;;;37.80;18.13;;;0.20;91.10;;;;;;5029452;28;20115;-74
2022/12/03 04:00:29;;;;;;;37.42;18.08;;;0.20;91.20;;;;;;5029236;28;20163;-74
2022/12/03 04:02:55;;;;;;;39.63;17.98;;;0.20;91.20;;;;;;5018350;28;20029;-73
2022/12/03 04:05:22;;;;;;;37.45;18.00;;;0.10;91.00;;;;;;5017743;28;20070;-74
2022/12/03 04:07:48;;;;;;;38.78;18.75;;;0.10;91.00;;;;;;5030825;28;20068;-74
2022/12/03 04:12:59;;;;;;;35.55;16.65;;;0.10;91.10;;;;;;5028434;28;20052;-74
2022/12/03 04:15:24;;;;;;;39.63;18.00;;;0.10;91.10;;;;;;5034963;28;20033;-74
2022/12/03 04:20:35;;;;;;;38.30;17.40;;;0.00;91.40;;;;;;5028195;28;20204;-75
2022/12/03 04:23:00;;;;;;;40.90;17.42;;;0.00;91.50;;;;;;5018077;28;20140;-74
2022/12/03 04:30:54;;;;;;;38.85;18.65;;;0.00;91.40;;;;;;5034285;28;20028;-74
2022/12/03 04:36:03;;;;;;;37.60;17.48;;;-3276.70;91.10;;;;;;5022716;28;20036;-74
2022/12/03 04:38:29;;;;;;;38.88;18.02;;;0.00;91.20;;;;;;5011210;28;20355;-73
2022/12/03 04:41:00;;;;;;;39.28;17.67;;;0.00;91.20;;;;;;5029322;28;20017;-74
2022/12/03 04:43:27;;;;;;;40.30;17.70;;;-3276.70;91.10;;;;;;5014098;28;20033;-74
2022/12/03 04:45:52;;;;;;;38.72;18.83;;;-3276.70;91.10;;;;;;5027473;28;20041;-74
2022/12/03 04:48:18;;;;;;;41.22;19.95;;;-3276.70;91.20;;;;;;5035554;28;20052;-74
2022/12/03 04:50:43;;;;;;;37.95;17.85;;;-3276.70;91.30;;;;;;5021707;28;20105;-74
2022/12/03 04:53:09;;;;;;;37.45;19.17;;;-3276.70;91.20;;;;;;5017139;28;20053;-74
2022/12/03 04:55:34;;;;;;;43.17;20.00;;;-3276.70;91.10;;;;;;5020984;28;20109;-74
2022/12/03 04:58:00;;;;;;;40.30;17.83;;;-3276.60;91.40;;;;;;5025581;28;20041;-73
2022/12/03 05:00:25;;;;;;;38.33;18.58;;;-3276.60;91.20;;;;;;5018410;28;20044;-74
2022/12/03 05:02:51;;;;;;;39.55;18.80;;;-3276.60;91.40;;;;;;5019283;28;20049;-74
2022/12/03 05:05:16;;;;;;;39.30;18.85;;;-3276.70;91.70;;;;;;5022913;28;20438;-74
2022/12/03 05:07:42;;;;;;;38.85;18.48;;;-3276.60;91.60;;;;;;5025657;28;20063;-74
2022/12/03 05:10:09;;;;;;;41.53;19.60;;;-3276.60;91.50;;;;;;5026420;28;20113;-74
2022/12/03 05:12:34;;;;;;;44.17;20.23;;;-3276.70;91.80;;;;;;5028728;28;20038;-74
2022/12/03 05:15:00;;;;;;;46.05;19.45;;;-3276.60;91.70;;;;;;5025718;28;20037;-74
2022/12/03 05:17:25;;;;;;;41.42;19.52;;;-3276.60;91.70;;;;;;5029152;28;20516;-74
2022/12/03 05:22:35;;;;;;;43.78;20.23;;;-3276.60;91.70;;;;;;5027635;28;20376;-74
2022/12/03 05:25:01;;;;;;;39.17;18.90;;;-3276.50;91.70;;;;;;5024962;28;20029;-74
2022/12/03 05:27:26;;;;;;;43.67;20.35;;;-3276.40;91.40;;;;;;5035577;28;20113;-75
2022/12/03 05:29:52;;;;;;;39.90;18.80;;;-3276.50;91.60;;;;;;5020896;28;20025;-74
2022/12/03 05:32:18;;;;;;;42.60;19.80;;;-3276.40;91.60;;;;;;5024752;28;20402;-74
2022/12/03 05:34:43;;;;;;;41.63;20.23;;;-3276.40;91.60;;;;;;5017072;28;20034;-74
2022/12/03 05:37:09;;;;;;;48.15;20.48;;;-3276.40;91.50;;;;;;5034458;28;20026;-73
2022/12/03 05:39:34;;;;;;;45.42;20.83;;;-3276.40;91.50;;;;;;5026071;28;20200;-74
2022/12/03 05:44:44;;;;;;;44.63;20.90;;;-3276.30;91.50;;;;;;5031121;28;20032;-74
2022/12/03 05:47:09;;;;;;;43.38;20.65;;;-3276.30;91.50;;;;;;5034506;28;20113;-74
2022/12/03 05:49:34;;;;;;;41.50;21.05;;;-3276.30;91.60;;;;;;5033228;28;20029;-74
2022/12/03 05:52:00;;;;;;;43.47;20.67;;;-3276.30;91.70;;;;;;5037892;28;20033;-74
2022/12/03 05:54:25;;;;;;;41.22;20.98;;;-3276.20;91.70;;;;;;5037533;28;20319;-74
2022/12/03 05:56:51;;;;;;;47.10;21.27;;;-3276.20;91.90;;;;;;5033582;28;20113;-73
2022/12/03 05:59:16;;;;;;;51.67;21.83;;;-3276.20;91.90;;;;;;5026632;28;20128;-75
2022/12/03 06:01:42;;;;;;;45.60;20.92;;;-3276.20;91.70;;;;;;5026102;28;20078;-73
2022/12/03 06:04:07;;;;;;;41.65;20.48;;;-3276.10;91.70;;;;;;5028258;28;20032;-74
2022/12/03 06:06:33;;;;;;;42.47;20.50;;;-3276.20;91.90;;;;;;5023925;28;20450;-76
2022/12/03 06:08:58;;;;;;;42.50;19.95;;;-3276.10;91.90;;;;;;5028025;28;20025;-74
2022/12/03 06:11:24;;;;;;;43.53;21.17;;;-3276.10;91.90;;;;;;5032259;28;20100;-74
2022/12/03 06:13:49;;;;;;;44.03;21.70;;;-3276.10;91.90;;;;;;5027418;28;20105;-73
2022/12/03 06:16:15;;;;;;;42.55;20.05;;;-3276.10;92.00;;;;;;5031743;28;20472;-74
2022/12/03 06:18:40;;;;;;;41.28;19.58;;;-3276.10;91.80;;;;;;5039607;28;20100;-74
2022/12/03 06:21:06;;;;;;;43.75;19.65;;;-3276.10;91.90;;;;;;5030855;28;20101;-73
2022/12/03 06:23:31;;;;;;;45.97;20.73;;;-3276.10;92.00;;;;;;5030496;28;20392;-74
2022/12/03 06:26:00;;;;;;;47.67;20.70;;;-3276.00;91.90;;;;;;5024777;28;20026;-74
2022/12/03 06:28:25;;;;;;;46.40;21.55;;;-3276.00;92.00;;;;;;5025935;28;20130;-74
2022/12/03 06:30:50;;;;;;;41.90;20.50;;;-3276.00;92.10;;;;;;5027236;28;20021;-73
2022/12/03 06:33:16;;;;;;;45.53;21.73;;;-3276.00;92.20;;;;;;5032116;28;20239;-75
2022/12/03 06:35:41;;;;;;;45.25;21.13;;;-3276.00;92.20;;;;;;5031373;28;20374;-74
2022/12/03 06:38:07;;;;;;;47.03;20.17;;;-3276.00;92.40;;;;;;5021762;28;20037;-74
2022/12/03 06:40:32;;;;;;;43.17;21.08;;;-3276.00;92.30;;;;;;5033522;28;20037;-74
2022/12/03 06:42:58;;;;;;;44.25;19.95;;;-3276.00;92.40;;;;;;5032582;28;20338;-74
2022/12/03 06:45:23;;;;;;;44.63;22.08;;;-3276.00;92.40;;;;;;5030413;28;20030;-77
2022/12/03 06:47:49;;;;;;;40.22;19.15;;;-3276.00;92.40;;;;;;5018955;28;20457;-73
2022/12/03 06:50:14;;;;;;;45.65;20.63;;;-3276.00;92.40;;;;;;5038309;28;20059;-75
2022/12/03 06:52:40;;;;;;;44.95;19.52;;;-3276.00;92.40;;;;;;5022054;28;20110;-74
2022/12/03 06:55:06;;;;;;;44.67;19.70;;;-3276.00;92.40;;;;;;5026616;28;20088;-77
2022/12/03 06:57:31;;;;;;;42.67;19.40;;;-3276.10;92.40;;;;;;5022238;28;20533;-74
2022/12/03 06:59:57;;;;;;;40.55;19.15;;;-3276.00;92.40;;;;;;5018336;28;20351;-74
2022/12/03 07:02:22;;;;;;;42.58;19.83;;;-3276.00;92.50;;;;;;5026573;28;22161;-74
2022/12/03 07:04:48;;;;;;;46.30;20.25;;;-3276.00;92.40;;;;;;5020131;28;20025;-74
2022/12/03 07:07:13;;;;;;;42.72;19.45;;;-3276.00;92.60;;;;;;5023425;28;20438;-73
2022/12/03 07:09:39;;;;;;;45.72;20.02;;;-3276.00;92.50;;;;;;5020439;28;20026;-75
2022/12/03 07:12:04;;;;;;;43.90;18.75;;;-3276.00;92.60;;;;;;5013722;28;20037;-73
2022/12/03 07:14:30;;;;;;;41.70;19.17;;;-3276.00;92.60;;;;;;5019855;28;20033;-74
2022/12/03 07:16:56;;;;;;;48.28;20.30;;;-3276.00;92.60;;;;;;5023281;28;20034;-75
2022/12/03 07:19:21;;;;;;;40.45;18.27;;;-3276.10;92.60;;;;;;5036166;28;20139;-75
2022/12/03 07:21:47;;;;;;;41.08;19.42;;;-3276.00;92.50;;;;;;5035921;28;20068;-75
2022/12/03 07:24:12;;;;;;;43.13;19.67;;;-3276.00;92.60;;;;;;5026862;28;20149;-74
2022/12/03 07:26:38;;;;;;;38.50;17.65;;;-3276.00;92.50;;;;;;5027422;28;20029;-74
2022/12/03 07:29:04;;;;;;;45.00;19.90;;;-3276.00;92.60;;;;;;5023557;28;20025;-74
2022/12/03 07:31:29;;;;;;;42.13;19.30;;;-3276.00;92.60;;;;;;5014032;28;20037;-74
2022/12/03 07:33:55;;;;;;;36.00;17.80;;;-3276.00;92.50;;;;;;5032126;28;20081;-76
2022/12/03 07:36:20;;;;;;;40.05;17.65;;;-3276.00;92.50;;;;;;5032748;28;20029;-74
2022/12/03 07:38:46;;;;;;;41.83;19.05;;;-3276.00;92.50;;;;;;5030044;28;20044;-75
2022/12/03 07:41:11;;;;;;;39.03;18.45;;;-3276.00;92.60;;;;;;5023792;28;20087;-70
2022/12/03 07:43:37;;;;;;;37.35;17.65;;;-3276.10;92.50;;;;;;5023876;28;20024;-70
2022/12/03 07:46:02;;;;;;;41.83;19.65;;;-3276.10;92.40;;;;;;5025461;28;20113;-70
2022/12/03 07:48:28;;;;;;;36.67;19.00;;;-3276.10;92.50;;;;;;5030020;28;20043;-74
2022/12/03 07:50:53;;;;;;;40.17;18.73;;;-3276.10;92.50;;;;;;5022101;28;20033;-72
2022/12/03 07:53:19;;;;;;;40.78;17.00;;;-3276.10;92.50;;;;;;5026970;28;20442;-70
2022/12/03 07:55:44;;;;;;;44.78;19.05;;;-3276.10;92.30;;;;;;5020928;28;20163;-72
2022/12/03 07:58:10;;;;;;;41.38;18.40;;;-3276.20;92.40;;;;;;5016054;28;20429;-70
2022/12/03 08:00:35;;;;;;;42.55;19.20;;;-3276.20;92.40;;;;;;5027114;28;20060;-71
2022/12/03 08:03:01;;;;;;;42.17;18.38;;;-3276.20;92.40;;;;;;5017322;28;20029;-71
2022/12/03 08:05:28;;;;;;;41.17;18.58;;;-3276.20;92.40;;;;;;5022575;28;20048;-71
2022/12/03 08:07:54;;;;;;;40.55;17.88;;;-3276.30;92.50;;;;;;5021964;28;20457;-71
2022/12/03 08:10:19;;;;;;;33.72;17.50;;;-3276.20;92.40;;;;;;5028316;28;20029;-72
2022/12/03 08:12:45;;;;;;;42.85;18.80;;;-3276.30;92.40;;;;;;5025934;28;20037;-70
2022/12/03 08:15:19;;;;;;;39.72;19.15;;;-3276.30;92.50;;;;;;5024634;28;20033;-70
2022/12/03 08:17:52;;;;;;;39.40;17.75;;;-3276.30;92.40;;;;;;5030377;28;20040;-70
2022/12/03 08:20:20;;;;;;;39.92;19.00;;;-3276.30;92.50;;;;;;5023150;28;20033;-70
2022/12/03 08:22:49;;;;;;;36.35;17.90;;;-3276.30;92.30;;;;;;5027869;28;20123;-71
2022/12/03 08:25:27;;;;;;;38.53;18.42;;;-3276.30;92.20;;;;;;5027273;28;20026;-71
2022/12/03 08:27:59;;;;;;;44.28;19.75;;;-3276.40;92.10;;;;;;5026876;28;20025;-71
2022/12/03 08:30:24;;;;;;;41.25;19.15;;;-3276.40;91.90;;;;;;5033064;28;20108;-71
2022/12/03 08:32:50;;;;;;;42.63;19.60;;;-3276.50;92.00;;;;;;5015596;28;20029;-70
2022/12/03 08:35:23;;;;;;;38.45;17.52;;;-3276.60;92.00;;;;;;5023303;28;20038;-70
2022/12/03 08:38:10;;;;;;;40.03;18.55;;;-3276.60;91.80;;;;;;5026619;28;20069;-71
2022/12/03 08:40:39;;;;;;;37.80;18.33;;;-3276.70;91.70;;;;;;5020175;28;20061;-72
2022/12/03 08:43:21;;;;;;;38.70;18.67;;;-3276.70;91.60;;;;;;5006807;28;20030;-71
2022/12/03 08:45:49;;;;;;;42.05;19.55;;;0.00;91.50;;;;;;5024694;28;20128;-72
2022/12/03 08:48:26;;;;;;;37.15;18.15;;;0.00;91.10;;;;;;5024717;28;20033;-71
2022/12/03 08:50:57;;;;;;;38.20;17.27;;;0.10;91.40;;;;;;5023960;28;20018;-70
2022/12/03 08:53:28;;;;;;;44.00;19.92;;;0.00;90.80;;;;;;5023611;28;20163;-71
2022/12/03 08:55:57;;;;;;;40.83;17.95;;;0.20;91.10;;;;;;5038068;28;20757;-71
2022/12/03 08:58:35;;;;;;;40.25;19.27;;;0.30;90.70;;;;;;5027103;28;20158;-72
2022/12/03 09:01:09;;;;;;;35.15;18.20;;;0.30;90.60;;;;;;5039514;28;20041;-71
2022/12/03 09:03:35;;;;;;;38.33;17.58;;;0.40;90.50;;;;;;5027548;28;20041;-70
2022/12/03 09:06:01;;;;;;;35.35;18.40;;;0.50;90.50;;;;;;5026527;28;20051;-71
2022/12/03 09:08:26;;;;;;;37.70;18.65;;;0.70;90.30;;;;;;5017445;28;20398;-71
2022/12/03 09:10:52;;;;;;;35.67;17.23;;;0.90;90.30;;;;;;5019415;28;20025;-71
2022/12/03 09:13:17;;;;;;;35.75;17.33;;;1.00;89.80;;;;;;5022938;28;20116;-72
2022/12/03 09:15:43;;;;;;;36.53;17.55;;;1.00;89.40;;;;;;5026839;28;20037;-72
2022/12/03 09:18:08;;;;;;;40.17;17.90;;;0.90;88.60;;;;;;5027594;28;20029;-71
2022/12/03 09:20:34;;;;;;;35.20;18.83;;;1.10;88.60;;;;;;5027598;28;20339;-71
2022/12/03 09:22:59;;;;;;;36.30;17.52;;;1.10;88.30;;;;;;5027293;28;20121;-70
2022/12/03 09:25:25;;;;;;;35.60;17.83;;;1.20;87.80;;;;;;5014647;28;20034;-70
2022/12/03 09:27:50;;;;;;;36.45;17.65;;;1.30;87.80;;;;;;5019751;28;20101;-72
2022/12/03 09:30:16;;;;;;;34.38;17.38;;;1.10;86.80;;;;;;5025941;28;20097;-71
2022/12/03 09:32:42;;;;;;;36.78;17.55;;;1.40;87.20;;;;;;5007152;28;20041;-70
2022/12/03 09:35:07;;;;;;;34.72;17.73;;;1.60;86.70;;;;;;5025225;28;20021;-71
2022/12/03 09:37:33;;;;;;;32.58;16.90;;;1.80;86.30;;;;;;5009347;28;20088;-71
2022/12/03 09:39:58;;;;;;;35.35;16.67;;;2.10;86.00;;;;;;5016656;28;20031;-70
2022/12/03 09:42:25;;;;;;;33.40;16.58;;;2.40;86.20;;;;;;5026436;28;20472;-71
2022/12/03 09:44:51;;;;;;;32.55;16.58;;;2.20;84.00;;;;;;5018579;28;20026;-71
2022/12/03 09:47:17;;;;;;;34.97;17.13;;;2.00;84.00;;;;;;5026761;28;20064;-71
2022/12/03 09:49:42;;;;;;;31.63;17.35;;;2.10;84.90;;;;;;5027812;28;20024;-71
2022/12/03 09:52:15;;;;;;;34.03;17.15;;;2.20;84.40;;;;;;5023168;28;20167;-71
2022/12/03 09:54:41;;;;;;;31.38;15.80;;;2.50;84.10;;;;;;5033885;28;20029;-71
2022/12/03 09:57:13;;;;;;;30.80;16.17;;;2.70;83.50;;;;;;5009543;28;20070;-68
2022/12/03 09:59:38;;;;;;;33.60;17.25;;;3.00;83.30;;;;;;5021485;28;20025;-69
2022/12/03 10:02:18;;;;;;;30.77;17.08;;;3.00;82.30;;;;;;5021107;28;20052;-71
2022/12/03 10:04:43;;;;;;;33.25;17.17;;;2.70;82.30;;;;;;5021076;28;20057;-71
2022/12/03 10:07:09;;;;;;;30.10;15.52;;;2.90;81.20;;;;;;5025868;28;20476;-71
2022/12/03 10:09:34;;;;;;;31.10;16.27;;;2.80;79.90;;;;;;5027118;28;20064;-70
2022/12/03 10:12:00;;;;;;;27.52;15.75;;;2.60;80.80;;;;;;5023520;28;20319;-72
2022/12/03 10:14:26;;;;;;;27.67;13.88;;;2.70;81.80;;;;;;5029090;28;20028;-71
2022/12/03 10:16:52;;;;;;;30.13;15.77;;;2.70;81.70;;;;;;5025033;28;20040;-70
2022/12/03 10:19:25;;;;;;;32.03;15.65;;;2.50;82.10;;;;;;5024726;28;20022;-69
2022/12/03 10:21:50;;;;;;;27.92;15.57;;;2.00;82.50;;;;;;5029239;28;20120;-70
2022/12/03 10:24:16;;;;;;;30.65;16.33;;;2.00;83.70;;;;;;5028878;28;20494;-70
2022/12/03 10:26:43;;;;;;;28.65;15.50;;;2.00;82.80;;;;;;5029550;28;20120;-71
2022/12/03 10:29:29;;;;;;;29.00;15.50;;;2.20;83.70;;;;;;5023165;28;20029;-70
2022/12/03 10:32:02;;;;;;;30.27;15.18;;;2.80;83.70;;;;;;5028895;28;20374;-70
2022/12/03 10:34:31;;;;;;;29.92;14.48;;;2.80;82.20;;;;;;5024498;28;20231;-69
2022/12/03 10:37:10;;;;;;;25.92;14.32;;;2.60;82.40;;;;;;5026918;28;20085;-70
2022/12/03 10:40:00;;;;;;;28.27;15.38;;;2.50;81.90;;;;;;5027080;28;20062;-70
2022/12/03 10:42:29;;;;;;;30.13;14.70;;;2.60;82.50;;;;;;5027609;28;20108;-73
2022/12/03 10:45:17;;;;;;;29.65;15.25;;;2.60;82.00;;;;;;5025386;28;20041;-68
2022/12/03 10:48:01;;;;;;;26.40;14.50;;;2.70;82.30;;;;;;5028043;28;20168;-70
2022/12/03 10:50:26;;;;;;;27.38;15.40;;;2.50;81.20;;;;;;5025074;28;20049;-68
2022/12/03 10:52:52;;;;;;;32.78;17.30;;;2.60;82.60;;;;;;5021301;28;20033;-69
2022/12/03 10:55:17;;;;;;;29.55;15.82;;;2.40;82.40;;;;;;5027528;28;20129;-69
2022/12/03 10:57:43;;;;;;;30.17;15.27;;;2.10;82.60;;;;;;5025945;28;20463;-69
2022/12/03 11:00:19;;;;;;;33.20;16.73;;;2.10;83.20;;;;;;5037083;28;20041;-69
2022/12/03 11:02:46;;;;;;;30.77;15.75;;;2.20;83.40;;;;;;5025418;28;20045;-70
2022/12/03 11:05:18;;;;;;;30.02;15.65;;;2.10;83.30;;;;;;5029308;28;20029;-69
2022/12/03 11:07:44;;;;;;;30.90;15.15;;;1.80;83.20;;;;;;5027831;28;20067;-70
2022/12/03 11:10:17;;;;;;;29.77;15.55;;;1.70;83.90;;;;;;5019593;28;20210;-69
2022/12/03 11:13:22;;;;;;;30.48;15.85;;;1.90;84.50;;;;;;5027697;28;20038;-69
2022/12/03 11:15:47;;;;;;;27.35;14.43;;;1.90;84.40;;;;;;5031916;28;20124;-71
2022/12/03 11:18:35;;;;;;;29.02;15.98;;;1.60;84.20;;;;;;5029634;28;20116;-70
2022/12/03 11:21:01;;;;;;;26.63;13.57;;;1.70;84.50;;;;;;5024319;28;20037;-72
2022/12/03 11:23:58;;;;;;;26.60;14.18;;;1.60;84.40;;;;;;5028857;28;20363;-69
2022/12/03 11:26:29;;;;;;;33.13;14.68;;;1.70;84.10;;;;;;5025351;28;20029;-69
2022/12/03 11:28:57;;;;;;;29.00;14.77;;;1.80;84.70;;;;;;5037465;28;20202;-68
2022/12/03 11:31:40;;;;;;;33.08;15.57;;;2.00;84.70;;;;;;5025981;28;20098;-71
2022/12/03 11:34:30;;;;;;;28.52;14.63;;;2.10;84.20;;;;;;5021894;28;20022;-69
2022/12/03 11:37:10;;;;;;;31.58;14.98;;;2.10;84.30;;;;;;5024576;28;20029;-68
2022/12/03 11:39:48;;;;;;;29.00;15.68;;;2.20;83.60;;;;;;5018812;28;20160;-68
2022/12/03 11:42:25;;;;;;;31.60;16.08;;;2.40;84.10;;;;;;5023583;28;20033;-70
2022/12/03 11:45:03;;;;;;;32.42;15.48;;;2.40;83.20;;;;;;5022348;28;20082;-69
2022/12/03 11:47:43;;;;;;;32.47;15.65;;;2.30;83.00;;;;;;5016748;28;20423;-68
2022/12/03 11:50:24;;;;;;;29.23;15.52;;;2.20;83.30;;;;;;5020419;28;20449;-70
2022/12/03 11:52:54;;;;;;;;;;;2.30;83.40;;;;;;5022957;28;20037;-69
2022/12/03 11:55:26;;;;;;;31.30;15.23;;;2.10;83.20;;;;;;5027211;28;19907;-70
2022/12/03 11:58:04;;;;;;;30.08;16.27;;;2.10;84.00;;;;;;5017134;28;20033;-69
2022/12/03 12:00:30;;;;;;;30.70;14.68;;;2.20;84.40;;;;;;5023823;28;20029;-70
2022/12/03 12:02:57;;;;;;;28.40;15.27;;;2.00;83.90;;;;;;5025034;28;20033;-69
2022/12/03 12:05:29;;;;;;;29.73;15.75;;;2.10;84.50;;;;;;5025834;28;20287;-70
2022/12/03 12:07:55;;;;;;;29.70;15.38;;;2.10;84.30;;;;;;5016801;28;20118;-69
2022/12/03 12:10:47;;;;;;;33.00;16.58;;;2.10;84.70;;;;;;5015917;28;20430;-70
2022/12/03 12:13:27;;;;;;;32.00;15.80;;;2.20;84.90;;;;;;5025479;28;20409;-71
2022/12/03 12:15:53;;;;;;;33.30;16.23;;;2.10;84.30;;;;;;5035039;28;20073;-69
2022/12/03 12:18:38;;;;;;;31.40;15.43;;;2.20;84.50;;;;;;5020905;28;20112;-71
2022/12/03 12:21:41;;;;;;;31.23;15.32;;;2.20;84.80;;;;;;5023617;28;20067;-69
2022/12/03 12:24:35;;;;;;;30.15;15.88;;;2.20;84.80;;;;;;5028343;28;20071;-69
2022/12/03 12:27:06;;;;;;;27.67;14.63;;;2.30;84.40;;;;;;5025502;28;20339;-72
2022/12/03 12:29:33;;;;;;;31.13;15.90;;;2.30;84.50;;;;;;5014147;28;20044;-75
2022/12/03 12:32:04;;;;;;;32.78;16.27;;;2.40;84.50;;;;;;5019244;28;20025;-72
2022/12/03 12:34:30;;;;;;;;;;;2.40;84.90;;;;;;5008949;28;20033;-70
2022/12/03 12:36:58;;;;;;;27.80;13.45;;;2.40;84.20;;;;;;5020757;28;19932;-70
2022/12/03 12:39:25;;;;;;;30.85;15.23;;;2.40;84.60;;;;;;5033600;28;20029;-69
2022/12/03 12:41:51;;;;;;;29.85;15.48;;;2.40;84.40;;;;;;5020858;28;20415;-70
2022/12/03 12:44:17;;;;;;;34.17;15.65;;;2.40;84.80;;;;;;5026481;28;20025;-71
2022/12/03 12:46:45;;;;;;;33.35;14.95;;;2.40;84.20;;;;;;5022754;28;20022;-71
2022/12/03 12:49:12;;;;;;;26.23;14.52;;;2.30;84.90;;;;;;5016079;28;20427;-70
2022/12/03 12:51:45;;;;;;;31.13;14.48;;;2.40;85.00;;;;;;5025830;28;20449;-71
2022/12/03 12:54:13;;;;;;;31.08;14.40;;;2.40;84.70;;;;;;5020470;28;20386;-71
2022/12/03 12:56:41;;;;;;;28.77;14.90;;;2.10;84.10;;;;;;5026161;28;20466;-71